createdAt,value
2023-11-10T00:00:10.681Z,63.90
2023-11-10T00:01:10.634Z,64.08
2023-11-10T00:02:10.557Z,63.97
2023-11-10T00:03:10.798Z,64.36
2023-11-10T00:04:10.893Z,64.37
2023-11-10T00:05:10.826Z,64.23
2023-11-10T00:06:10.620Z,63.83
2023-11-10T00:07:10.622Z,63.89
2023-11-10T00:08:10.520Z,64.25
2023-11-10T00:09:10.688Z,64.58
2023-11-10T00:10:10.526Z,64.34
2023-11-10T00:11:10.505Z,64.08
2023-11-10T00:12:10.597Z,64.23
2023-11-10T00:13:10.511Z,64.44
2023-11-10T00:14:13.794Z,64.11
2023-11-10T00:15:10.673Z,64.14
2023-11-10T00:16:11.497Z,64.28
2023-11-10T00:17:10.552Z,64.11
2023-11-10T00:18:10.479Z,64.20
2023-11-10T00:19:10.444Z,64.08
2023-11-10T00:20:10.475Z,64.02
2023-11-10T00:21:10.444Z,63.49
2023-11-10T00:22:11.902Z,63.18
2023-11-10T00:23:10.415Z,62.96
2023-11-10T00:24:10.562Z,63.00
2023-11-10T00:25:10.525Z,62.98
2023-11-10T00:26:10.526Z,62.85
2023-11-10T00:27:10.564Z,62.99
2023-11-10T00:28:10.536Z,63.05
2023-11-10T00:29:10.644Z,63.16
2023-11-10T00:30:10.704Z,63.13
2023-11-10T00:31:10.658Z,63.41
2023-11-10T00:32:10.777Z,63.51
2023-11-10T00:33:10.914Z,63.45
2023-11-10T00:34:10.864Z,63.38
2023-11-10T00:35:10.892Z,63.24
2023-11-10T00:36:10.833Z,63.27
2023-11-10T00:37:10.844Z,63.20
2023-11-10T00:38:10.906Z,62.16
2023-11-10T00:39:10.983Z,61.88
2023-11-10T00:40:11.014Z,61.73
2023-11-10T00:41:11.039Z,61.41
2023-11-10T00:42:11.067Z,61.51
2023-11-10T00:43:11.060Z,61.47
2023-11-10T00:44:11.064Z,61.51
2023-11-10T00:45:11.219Z,61.54
2023-11-10T00:46:11.192Z,61.59
2023-11-10T00:47:11.285Z,61.71
2023-11-10T00:48:11.347Z,61.64
2023-11-10T00:49:11.396Z,61.26
2023-11-10T00:50:11.587Z,61.44
2023-11-10T00:51:11.459Z,61.64
2023-11-10T00:52:11.416Z,61.90
2023-11-10T00:53:11.436Z,61.85
2023-11-10T00:54:11.556Z,61.88
2023-11-10T00:55:11.666Z,62.18
2023-11-10T00:56:11.522Z,62.34
2023-11-10T00:57:11.593Z,62.98
2023-11-10T00:58:11.556Z,64.04
2023-11-10T00:59:11.590Z,64.65
2023-11-10T01:00:11.668Z,65.04
2023-11-10T01:01:11.685Z,65.40
2023-11-10T01:02:11.765Z,65.46
2023-11-10T01:03:11.765Z,65.46
2023-11-10T01:04:12.076Z,65.52
2023-11-10T01:05:11.804Z,65.59
2023-11-10T01:06:12.206Z,65.06
2023-11-10T01:07:11.854Z,64.90
2023-11-10T01:08:11.952Z,64.79
2023-11-10T01:09:12.004Z,64.50
2023-11-10T01:10:11.934Z,64.13
2023-11-10T01:11:11.972Z,64.19
2023-11-10T01:12:12.105Z,64.57
2023-11-10T01:13:12.072Z,65.16
2023-11-10T01:14:12.077Z,65.77
2023-11-10T01:15:12.193Z,66.38
2023-11-10T01:16:12.094Z,66.61
2023-11-10T01:17:12.215Z,66.81
2023-11-10T01:18:13.015Z,67.31
2023-11-10T01:19:12.829Z,67.92
2023-11-10T01:20:12.203Z,68.66
2023-11-10T01:21:12.259Z,69.16
2023-11-10T01:22:12.242Z,69.17
2023-11-10T01:23:12.254Z,69.07
2023-11-10T01:24:12.374Z,69.10
2023-11-10T01:25:12.281Z,68.96
2023-11-10T01:26:12.250Z,68.85
2023-11-10T01:27:12.342Z,68.62
2023-11-10T01:28:12.282Z,68.52
2023-11-10T01:29:12.364Z,68.54
2023-11-10T01:30:12.337Z,68.71
2023-11-10T01:31:12.283Z,68.93
2023-11-10T01:32:12.313Z,69.25
2023-11-10T01:33:12.438Z,69.54
2023-11-10T01:34:12.978Z,69.64
2023-11-10T01:35:12.422Z,69.28
2023-11-10T01:36:12.416Z,69.38
2023-11-10T01:37:12.353Z,69.42
2023-11-10T01:38:12.365Z,69.50
2023-11-10T01:39:12.471Z,69.66
2023-11-10T01:40:12.479Z,69.83
2023-11-10T01:41:12.471Z,70.06
2023-11-10T01:42:12.644Z,70.17
2023-11-10T01:43:12.606Z,69.93
2023-11-10T01:44:12.698Z,69.67
2023-11-10T01:45:12.820Z,68.90
2023-11-10T01:46:12.738Z,68.56
2023-11-10T01:47:12.857Z,68.87
2023-11-10T01:48:12.786Z,69.24
2023-11-10T01:49:12.660Z,69.73
2023-11-10T01:50:12.647Z,70.65
2023-11-10T01:51:12.760Z,70.94
2023-11-10T01:52:12.748Z,71.01
2023-11-10T01:53:12.845Z,71.01
2023-11-10T01:54:12.902Z,71.20
2023-11-10T01:55:12.901Z,71.21
2023-11-10T01:56:13.404Z,71.24
2023-11-10T01:57:12.951Z,71.55
2023-11-10T01:58:13.089Z,71.66
2023-11-10T01:59:12.905Z,71.07
2023-11-10T02:00:12.933Z,69.99
2023-11-10T02:01:13.834Z,69.12
2023-11-10T02:02:13.074Z,68.70
2023-11-10T02:03:13.068Z,68.57
2023-11-10T02:04:13.028Z,68.87
2023-11-10T02:05:13.042Z,69.22
2023-11-10T02:06:13.063Z,69.37
2023-11-10T02:07:13.046Z,69.88
2023-11-10T02:08:13.113Z,70.37
2023-11-10T02:09:13.011Z,70.75
2023-11-10T02:10:13.038Z,70.81
2023-11-10T02:11:13.076Z,70.92
2023-11-10T02:12:13.130Z,71.12
2023-11-10T02:13:13.914Z,71.46
2023-11-10T02:14:13.192Z,71.60
2023-11-10T02:15:13.247Z,71.43
2023-11-10T02:16:13.482Z,71.33
2023-11-10T02:17:13.304Z,71.33
2023-11-10T02:18:13.366Z,71.59
2023-11-10T02:19:13.434Z,71.82
2023-11-10T02:20:13.508Z,71.93
2023-11-10T02:21:13.704Z,71.80
2023-11-10T02:22:13.598Z,71.51
2023-11-10T02:23:14.406Z,71.89
2023-11-10T02:24:13.729Z,72.09
2023-11-10T02:25:13.811Z,72.34
2023-11-10T02:26:13.806Z,72.42
2023-11-10T02:27:13.865Z,72.46
2023-11-10T02:28:13.779Z,72.45
2023-11-10T02:29:13.819Z,72.24
2023-11-10T02:30:14.358Z,72.12
2023-11-10T02:31:13.998Z,72.27
2023-11-10T02:32:13.931Z,72.06
2023-11-10T02:33:14.067Z,71.63
2023-11-10T02:34:13.964Z,71.07
2023-11-10T02:35:14.078Z,70.61
2023-11-10T02:36:14.150Z,70.61
2023-11-10T02:37:14.390Z,70.67
2023-11-10T02:38:17.366Z,70.50
2023-11-10T02:39:14.130Z,70.83
2023-11-10T02:40:14.104Z,70.89
2023-11-10T02:41:14.106Z,70.85
2023-11-10T02:42:14.140Z,70.95
2023-11-10T02:43:14.081Z,70.57
2023-11-10T02:44:14.162Z,70.41
2023-11-10T02:58:55.437Z,75.64
2023-11-10T02:59:55.407Z,74.04
2023-11-10T03:00:55.371Z,74.05
2023-11-10T03:01:55.111Z,74.19
2023-11-10T03:02:55.139Z,74.31
2023-11-10T03:03:55.133Z,74.13
2023-11-10T03:34:26.833Z,75.65
2023-11-10T03:35:19.140Z,75.22
2023-11-10T03:36:18.233Z,74.94
2023-11-10T03:37:18.044Z,74.31
2023-11-10T03:38:18.077Z,73.32
2023-11-10T03:39:18.016Z,72.53
2023-11-10T03:40:18.080Z,72.12
2023-11-10T03:41:18.205Z,71.60
2023-11-10T03:54:58.658Z,72.43
2023-11-10T03:55:58.342Z,70.67
2023-11-10T03:56:59.361Z,70.41
2023-11-10T03:57:58.047Z,70.39
2023-11-10T03:58:58.060Z,70.86
2023-11-10T03:59:58.134Z,71.23
2023-11-10T04:00:58.082Z,72.01
2023-11-10T04:01:58.057Z,72.36
2023-11-10T04:02:58.102Z,72.49
2023-11-10T04:03:58.114Z,72.86
2023-11-10T04:04:58.087Z,73.40
2023-11-10T04:05:58.102Z,73.83
2023-11-10T04:06:58.099Z,74.02
2023-11-10T04:07:58.045Z,74.15
2023-11-10T04:08:58.024Z,74.14
2023-11-10T04:09:58.066Z,74.25
2023-11-10T04:10:57.988Z,74.23
2023-11-10T04:11:58.668Z,74.23
2023-11-10T04:12:58.874Z,74.46
2023-11-10T04:13:58.015Z,74.52
2023-11-10T04:14:58.069Z,74.55
2023-11-10T04:15:58.242Z,74.43
2023-11-10T04:16:58.151Z,74.46
2023-11-10T04:17:58.130Z,74.52
2023-11-10T04:18:58.059Z,74.71
2023-11-10T04:19:57.996Z,74.78
2023-11-10T04:20:58.082Z,74.57
2023-11-10T04:21:58.181Z,74.78
2023-11-10T04:22:58.231Z,75.04
2023-11-10T04:23:58.346Z,75.33
2023-11-10T04:24:58.105Z,75.40
2023-11-10T04:25:58.245Z,74.86
2023-11-10T04:26:58.147Z,74.24
2023-11-10T04:27:58.237Z,74.30
2023-11-10T04:28:58.373Z,74.36
2023-11-10T04:29:58.325Z,74.28
2023-11-10T04:30:58.611Z,74.23
2023-11-10T04:31:58.409Z,74.23
2023-11-10T04:32:58.446Z,74.36
2023-11-10T04:33:58.551Z,74.53
2023-11-10T04:34:58.422Z,74.53
2023-11-10T04:35:58.526Z,74.57
2023-11-10T04:36:58.526Z,74.58
2023-11-10T04:37:58.532Z,74.49
2023-11-10T04:38:58.699Z,74.42
2023-11-10T04:39:58.642Z,74.42
2023-11-10T04:40:58.548Z,74.40
2023-11-10T04:41:58.556Z,74.34
2023-11-10T04:42:58.876Z,74.10
2023-11-10T04:43:58.599Z,73.02
2023-11-10T04:44:58.624Z,72.10
2023-11-10T04:45:58.626Z,71.67
2023-11-10T04:46:58.592Z,71.74
2023-11-10T04:47:58.606Z,71.65
2023-11-10T04:48:58.592Z,71.58
2023-11-10T04:49:58.686Z,71.80
2023-11-10T04:50:59.849Z,72.09
2023-11-10T04:51:58.824Z,72.25
2023-11-10T04:52:58.911Z,72.29
2023-11-10T04:53:58.833Z,72.36
2023-11-10T04:54:58.947Z,72.44
2023-11-10T04:55:58.879Z,72.92
2023-11-10T04:56:59.956Z,73.08
2023-11-10T04:57:58.954Z,73.39
2023-11-10T04:58:59.146Z,73.48
2023-11-10T04:59:58.992Z,73.54
2023-11-10T05:00:59.350Z,73.07
2023-11-10T05:01:59.195Z,72.68
2023-11-10T05:02:59.561Z,72.47
2023-11-10T05:03:59.121Z,72.42
2023-11-10T05:05:00.401Z,72.50
2023-11-10T05:05:59.110Z,72.53
2023-11-10T05:06:59.123Z,72.52
2023-11-10T05:13:32.925Z,74.26
2023-11-10T05:14:34.786Z,73.87
2023-11-10T05:15:32.798Z,73.84
2023-11-10T05:16:32.530Z,74.08
2023-11-10T05:17:31.962Z,74.26
2023-11-10T05:19:32.087Z,74.17
2023-11-10T05:20:32.051Z,74.13
2023-11-10T05:21:32.017Z,74.19
2023-11-10T05:22:31.967Z,74.21
2023-11-10T05:23:31.979Z,74.45
2023-11-10T05:24:32.088Z,74.68
2023-11-10T05:25:31.902Z,74.77
2023-11-10T05:26:31.915Z,74.99
2023-11-10T05:27:31.924Z,75.09
2023-11-10T05:28:31.905Z,75.09
2023-11-10T05:29:31.822Z,75.11
2023-11-10T05:30:32.756Z,75.12
2023-11-10T05:31:31.877Z,75.10
2023-11-10T05:32:32.908Z,74.98
2023-11-10T05:33:31.906Z,74.56
2023-11-10T05:34:31.911Z,74.32
2023-11-10T05:35:31.865Z,74.21
2023-11-10T05:36:31.927Z,74.26
2023-11-10T05:37:31.792Z,74.18
2023-11-10T05:38:31.801Z,74.20
2023-11-10T05:39:32.731Z,74.26
2023-11-10T05:40:31.806Z,74.33
2023-11-10T05:41:31.817Z,74.47
2023-11-10T05:42:31.861Z,74.48
2023-11-10T05:43:31.833Z,74.41
2023-11-10T05:44:31.819Z,74.45
2023-11-10T05:45:31.873Z,74.95
2023-11-10T05:46:31.770Z,75.04
2023-11-10T05:47:31.776Z,74.97
2023-11-10T05:48:31.736Z,74.72
2023-11-10T05:49:31.750Z,74.58
2023-11-10T05:50:32.287Z,74.58
2023-11-10T05:51:31.802Z,74.51
2023-11-10T05:52:31.680Z,74.48
2023-11-10T05:53:31.785Z,74.43
2023-11-10T05:54:31.692Z,74.34
2023-11-10T05:55:31.952Z,74.52
2023-11-10T05:56:31.685Z,74.58
2023-11-10T05:57:31.822Z,74.55
2023-11-10T05:58:31.726Z,74.68
2023-11-10T05:59:31.609Z,74.85
2023-11-10T06:00:31.677Z,75.03
2023-11-10T06:01:31.651Z,75.17
2023-11-10T06:02:31.723Z,75.27
2023-11-10T06:03:31.727Z,75.41
2023-11-10T06:04:35.218Z,75.50
2023-11-10T06:05:31.661Z,75.45
2023-11-10T06:06:31.615Z,75.42
2023-11-10T06:07:31.665Z,75.38
2023-11-10T06:08:32.211Z,75.47
2023-11-10T06:09:31.630Z,75.54
2023-11-10T06:10:31.597Z,75.63
2023-11-10T06:11:39.454Z,75.57
2023-11-10T06:12:32.661Z,75.62
2023-11-10T06:13:34.225Z,75.58
2023-11-10T06:14:31.622Z,75.61
2023-11-10T06:15:31.544Z,75.76
2023-11-10T06:16:31.579Z,75.86
2023-11-10T06:17:31.545Z,76.09
2023-11-10T06:18:31.596Z,76.16
2023-11-10T06:19:31.535Z,76.24
2023-11-10T06:20:31.462Z,76.36
2023-11-10T06:21:31.524Z,76.22
2023-11-10T06:22:31.517Z,75.88
2023-11-10T06:23:31.499Z,75.61
2023-11-10T06:24:31.647Z,75.56
2023-11-10T06:25:31.481Z,75.65
2023-11-10T06:26:31.480Z,75.88
2023-11-10T06:27:31.556Z,75.92
2023-11-10T06:28:31.496Z,75.78
2023-11-10T06:29:31.549Z,75.77
2023-11-10T06:30:31.740Z,75.80
2023-11-10T06:31:31.587Z,75.75
2023-11-10T06:32:31.464Z,75.84
2023-11-10T06:33:31.460Z,76.18
2023-11-10T06:34:31.478Z,76.35
2023-11-10T06:35:32.185Z,76.33
2023-11-10T06:36:31.521Z,76.29
2023-11-10T06:37:31.485Z,76.25
2023-11-10T06:38:31.494Z,76.08
2023-11-10T06:39:31.570Z,75.83
2023-11-10T06:40:31.385Z,75.77
2023-11-10T06:41:31.391Z,75.80
2023-11-10T06:42:31.362Z,75.79
2023-11-10T06:43:31.476Z,75.66
2023-11-10T06:44:31.413Z,75.68
2023-11-10T06:45:31.460Z,75.82
2023-11-10T06:46:31.467Z,75.65
2023-11-10T06:47:31.603Z,75.49
2023-11-10T06:48:31.346Z,75.56
2023-11-10T06:49:31.296Z,75.46
2023-11-10T06:50:31.371Z,75.46
2023-11-10T06:51:31.807Z,75.41
2023-11-10T06:52:31.359Z,75.59
2023-11-10T06:53:31.775Z,75.98
2023-11-10T06:54:31.316Z,76.08
2023-11-10T06:55:31.369Z,76.21
2023-11-10T06:56:32.197Z,76.33
2023-11-10T06:57:31.307Z,76.35
2023-11-10T06:58:31.305Z,76.21
2023-11-10T06:59:31.226Z,76.20
2023-11-10T07:00:31.343Z,76.16
2023-11-10T07:01:31.226Z,76.10
2023-11-10T07:02:31.303Z,75.97
2023-11-10T07:03:31.331Z,76.14
2023-11-10T07:04:32.270Z,76.23
2023-11-10T07:05:31.316Z,76.44
2023-11-10T07:06:31.366Z,76.59
2023-11-10T07:07:32.178Z,76.76
2023-11-10T07:08:31.500Z,76.72
2023-11-10T07:09:31.498Z,76.37
2023-11-10T07:10:31.616Z,76.09
2023-11-10T07:11:31.694Z,76.11
2023-11-10T07:12:31.642Z,76.26
2023-11-10T07:13:31.973Z,76.34
2023-11-10T07:14:31.701Z,76.39
2023-11-10T07:15:31.834Z,76.51
2023-11-10T07:16:31.827Z,76.67
2023-11-10T07:17:31.824Z,76.78
2023-11-10T07:18:31.874Z,76.77
2023-11-10T07:19:31.753Z,76.76
2023-11-10T07:20:31.865Z,76.76
2023-11-10T07:21:31.903Z,76.67
2023-11-10T07:22:31.879Z,76.66
2023-11-10T07:23:31.889Z,76.68
2023-11-10T07:24:31.913Z,76.25
2023-11-10T07:25:32.011Z,75.71
2023-11-10T07:26:32.096Z,75.37
2023-11-10T07:27:32.075Z,75.41
2023-11-10T07:28:32.196Z,75.45
2023-11-10T07:29:32.157Z,75.42
2023-11-10T07:30:33.337Z,75.37
2023-11-10T07:31:32.265Z,75.31
2023-11-10T07:32:32.386Z,75.20
2023-11-10T07:33:32.484Z,75.45
2023-11-10T07:34:32.399Z,75.62
2023-11-10T07:35:32.478Z,75.85
2023-11-10T07:36:32.542Z,76.09
2023-11-10T07:37:32.499Z,76.13
2023-11-10T07:38:32.634Z,76.09
2023-11-10T07:39:32.730Z,75.99
2023-11-10T07:40:32.709Z,75.91
2023-11-10T07:41:32.742Z,75.92
2023-11-10T07:42:32.689Z,75.87
2023-11-10T07:43:32.746Z,75.69
2023-11-10T07:44:32.858Z,75.76
2023-11-10T07:45:32.879Z,75.74
2023-11-10T07:46:32.869Z,75.79
2023-11-10T07:47:32.893Z,75.61
2023-11-10T07:48:32.912Z,75.36
2023-11-10T07:49:32.905Z,75.40
2023-11-10T07:50:32.920Z,75.27
2023-11-10T07:51:32.974Z,75.36
2023-11-10T07:52:33.712Z,75.31
2023-11-10T07:53:33.048Z,75.22
2023-11-10T07:54:33.080Z,75.17
2023-11-10T07:55:33.138Z,75.20
2023-11-10T07:56:34.073Z,74.97
2023-11-10T07:57:33.173Z,74.77
2023-11-10T07:58:33.209Z,74.70
2023-11-10T07:59:33.181Z,74.73
2023-11-10T08:00:33.226Z,74.61
2023-11-10T08:01:33.333Z,74.51
2023-11-10T08:02:33.583Z,74.18
2023-11-10T08:03:33.422Z,73.83
2023-11-10T08:04:33.389Z,73.33
2023-11-10T08:05:34.342Z,73.06
2023-11-10T08:06:34.170Z,72.62
2023-11-10T08:07:33.435Z,72.36
2023-11-10T08:08:33.480Z,71.86
2023-11-10T08:09:33.541Z,71.03
2023-11-10T08:10:33.665Z,70.19
2023-11-10T08:11:42.407Z,69.35
2023-11-10T08:12:34.592Z,67.91
2023-11-10T08:13:33.559Z,64.99
2023-11-10T08:14:33.650Z,61.78
2023-11-10T08:15:33.736Z,57.83
2023-11-10T08:16:33.528Z,54.27
2023-11-10T08:17:33.549Z,50.64
2023-11-10T08:18:33.507Z,47.53
2023-11-10T08:19:33.574Z,44.61
2023-11-10T08:20:33.773Z,41.89
2023-11-10T08:21:34.838Z,39.55
2023-11-10T08:22:34.436Z,37.46
2023-11-10T08:23:33.493Z,35.51
2023-11-10T08:24:33.572Z,33.97
2023-11-10T08:25:33.438Z,32.44
2023-11-10T08:26:33.545Z,31.48
2023-11-10T08:27:33.517Z,30.34
2023-11-10T08:28:34.266Z,29.34
2023-11-10T08:29:33.527Z,28.56
2023-11-10T08:30:37.639Z,27.32
2023-11-10T08:31:35.233Z,26.46
2023-11-10T08:32:33.738Z,25.69
2023-11-10T08:33:33.531Z,25.12
2023-11-10T08:34:33.517Z,24.78
2023-11-10T08:35:33.430Z,25.59
2023-11-10T08:36:33.369Z,25.39
2023-11-10T08:37:36.608Z,24.87
2023-11-10T08:38:33.394Z,24.26
2023-11-10T08:39:33.424Z,23.94
2023-11-10T08:40:35.421Z,23.86
2023-11-10T08:41:33.364Z,23.41
2023-11-10T08:42:33.405Z,22.84
2023-11-10T08:43:33.452Z,22.20
2023-11-10T08:44:33.376Z,21.81
2023-11-10T08:45:37.768Z,21.67
2023-11-10T08:46:33.441Z,21.40
2023-11-10T08:47:33.411Z,20.94
2023-11-10T08:48:34.240Z,20.93
2023-11-10T08:49:33.364Z,21.19
2023-11-10T08:50:33.388Z,20.98
2023-11-10T08:51:33.786Z,20.98
2023-11-10T08:52:34.305Z,20.56
2023-11-10T08:53:44.865Z,20.53
2023-11-10T08:54:35.355Z,20.28
2023-11-10T08:55:33.721Z,20.00
2023-11-10T08:56:34.735Z,19.49
2023-11-10T08:57:33.787Z,18.97
2023-11-10T08:58:33.736Z,18.90
2023-11-10T08:59:35.438Z,18.68
2023-11-10T09:00:34.047Z,18.63
2023-11-10T09:01:40.872Z,19.31
2023-11-10T09:02:35.679Z,20.18
2023-11-10T09:03:34.012Z,21.13
2023-11-10T09:04:33.790Z,20.76
2023-11-10T09:05:33.737Z,20.16
2023-11-10T09:06:34.095Z,20.17
2023-11-10T09:07:33.768Z,20.62
2023-11-10T09:08:34.776Z,20.82
2023-11-10T09:09:33.708Z,19.86
2023-11-10T09:13:55.570Z,18.68
2023-11-10T09:14:55.769Z,18.26
2023-11-10T09:16:01.978Z,18.22
2023-11-10T09:16:58.174Z,17.86
2023-11-10T09:17:55.413Z,17.78
2023-11-10T09:18:58.515Z,17.31
2023-11-10T09:19:55.509Z,17.20
2023-11-10T09:20:55.413Z,16.75
2023-11-10T09:21:55.369Z,16.53
2023-11-10T09:22:55.356Z,16.45
2023-11-10T09:23:55.429Z,16.61
2023-11-10T09:24:58.113Z,17.40
2023-11-10T09:25:55.374Z,18.46
2023-11-10T09:26:55.384Z,18.73
2023-11-10T09:27:55.318Z,18.91
2023-11-10T09:28:57.429Z,18.92
2023-11-10T09:29:55.400Z,19.48
2023-11-10T09:30:56.458Z,19.94
2023-11-10T09:31:55.416Z,19.50
2023-11-10T09:32:55.337Z,18.96
2023-11-10T09:33:55.339Z,18.43
2023-11-10T09:34:55.251Z,18.78
2023-11-10T09:35:55.249Z,18.41
2023-11-10T09:36:56.488Z,18.58
2023-11-10T09:37:56.184Z,18.93
2023-11-10T09:38:57.461Z,18.82
2023-11-10T09:40:08.484Z,19.03
2023-11-10T09:40:56.432Z,19.09
2023-11-10T09:42:01.423Z,18.71
2023-11-10T09:42:56.337Z,18.03
2023-11-10T09:44:07.128Z,17.81
2023-11-10T09:44:57.531Z,17.07
2023-11-10T09:45:55.440Z,16.48
2023-11-10T09:46:55.496Z,16.09
2023-11-10T09:47:55.478Z,16.20
2023-11-10T09:48:55.485Z,15.87
2023-11-10T09:49:55.412Z,15.60
2023-11-10T09:50:55.480Z,15.45
2023-11-10T09:51:55.580Z,15.14
2023-11-10T09:52:55.484Z,15.19
2023-11-10T09:53:55.580Z,15.50
2023-11-10T09:54:58.569Z,16.26
2023-11-10T09:55:56.196Z,16.82
2023-11-10T09:56:56.102Z,17.13
2023-11-10T09:57:55.806Z,17.65
2023-11-10T09:58:55.729Z,18.16
2023-11-10T09:59:55.634Z,18.64
2023-11-10T10:00:55.708Z,18.54
2023-11-10T10:01:55.748Z,18.47
2023-11-10T10:02:55.661Z,17.84
2023-11-10T10:03:55.676Z,17.66
2023-11-10T10:04:56.516Z,17.58
2023-11-10T10:05:55.611Z,17.45
2023-11-10T10:06:55.550Z,17.47
2023-11-10T10:07:55.593Z,17.73
2023-11-10T10:08:55.598Z,18.11
2023-11-10T10:09:55.612Z,18.14
2023-11-10T10:10:55.604Z,18.41
2023-11-10T10:11:55.381Z,18.13
2023-11-10T10:12:55.443Z,18.15
2023-11-10T10:13:57.027Z,18.17
2023-11-10T10:14:55.644Z,18.20
2023-11-10T10:15:58.159Z,18.36
2023-11-10T10:16:55.443Z,18.43
2023-11-10T10:17:55.532Z,18.42
2023-11-10T10:18:56.268Z,18.20
2023-11-10T10:19:55.481Z,18.27
2023-11-10T10:20:55.993Z,18.41
2023-11-10T10:21:55.625Z,18.32
2023-11-10T10:22:58.112Z,18.16
2023-11-10T10:23:55.470Z,18.30
2023-11-10T10:24:55.447Z,17.89
2023-11-10T10:25:56.124Z,17.52
2023-11-10T10:26:55.467Z,17.43
2023-11-10T10:27:55.462Z,17.30
2023-11-10T10:28:55.399Z,17.15
2023-11-10T10:29:56.123Z,17.05
2023-11-10T10:30:57.093Z,16.99
2023-11-10T10:31:55.451Z,17.21
2023-11-10T10:32:55.472Z,17.58
2023-11-10T10:33:55.393Z,17.68
2023-11-10T10:34:55.363Z,17.26
2023-11-10T10:35:55.348Z,16.97
2023-11-10T10:36:55.425Z,16.74
2023-11-10T10:37:56.240Z,16.56
2023-11-10T10:38:56.305Z,16.45
2023-11-10T10:39:56.147Z,16.36
2023-11-10T10:40:55.388Z,17.04
2023-11-10T10:41:55.378Z,17.52
2023-11-10T10:42:55.720Z,18.22
2023-11-10T10:44:06.125Z,18.81
2023-11-10T10:44:57.963Z,19.29
2023-11-10T10:45:55.411Z,19.89
2023-11-10T10:46:55.336Z,20.21
2023-11-10T10:47:55.349Z,20.45
2023-11-10T10:48:55.373Z,21.57
2023-11-10T10:49:55.246Z,21.68
2023-11-10T10:50:55.241Z,20.66
2023-11-10T10:51:55.553Z,20.30
2023-11-10T10:52:55.193Z,20.34
2023-11-10T10:53:55.277Z,20.17
2023-11-10T10:54:55.234Z,18.91
2023-11-10T10:55:55.200Z,18.31
2023-11-10T10:56:55.211Z,18.12
2023-11-10T10:57:55.284Z,18.12
2023-11-10T10:58:55.295Z,17.98
2023-11-10T10:59:55.189Z,18.69
2023-11-10T11:00:55.152Z,18.69
2023-11-10T11:03:35.620Z,19.89
2023-11-10T11:04:34.869Z,19.49
2023-11-10T11:05:34.500Z,19.73
2023-11-10T11:06:34.528Z,20.80
2023-11-10T11:07:34.569Z,21.71
2023-11-10T11:08:34.523Z,22.26
2023-11-10T11:09:35.558Z,23.70
2023-11-10T11:10:34.438Z,23.23
2023-11-10T11:11:34.442Z,22.51
2023-11-10T11:12:34.689Z,21.95
2023-11-10T11:13:34.481Z,21.87
2023-11-10T11:14:35.527Z,21.71
2023-11-10T11:15:34.565Z,21.63
2023-11-10T11:16:34.480Z,21.37
2023-11-10T11:17:34.475Z,20.84
2023-11-10T11:18:34.560Z,20.49
2023-11-10T11:19:35.530Z,20.10
2023-11-10T11:20:34.678Z,20.10
2023-11-10T11:21:34.991Z,20.20
2023-11-10T11:22:34.576Z,20.13
2023-11-10T11:23:34.678Z,19.79
2023-11-10T11:24:34.741Z,19.39
2023-11-10T11:25:34.715Z,19.18
2023-11-10T11:26:34.762Z,19.57
2023-11-10T11:27:34.770Z,19.34
2023-11-10T11:28:35.984Z,18.92
2023-11-10T11:29:35.570Z,18.67
2023-11-10T11:30:34.996Z,18.33
2023-11-10T11:31:34.946Z,18.30
2023-11-10T11:32:36.958Z,18.30
2023-11-10T11:33:37.621Z,19.47
2023-11-10T11:34:34.911Z,20.50
2023-11-10T11:35:34.963Z,20.62
2023-11-10T11:36:35.094Z,20.27
2023-11-10T11:37:35.036Z,19.86
2023-11-10T11:38:36.909Z,19.59
2023-11-10T11:39:37.037Z,19.91
2023-11-10T11:40:35.120Z,21.19
2023-11-10T11:41:36.000Z,22.20
2023-11-10T11:42:34.985Z,22.08
2023-11-10T11:43:34.904Z,21.99
2023-11-10T11:44:36.029Z,21.55
2023-11-10T11:45:34.907Z,22.42
2023-11-10T11:46:36.098Z,23.34
2023-11-10T11:47:34.890Z,23.32
2023-11-10T11:48:34.965Z,24.47
2023-11-10T11:49:35.581Z,25.08
2023-11-10T11:50:36.446Z,25.95
2023-11-10T11:51:36.985Z,26.71
2023-11-10T11:52:34.828Z,26.37
2023-11-10T11:53:34.823Z,26.20
2023-11-10T11:54:35.549Z,25.31
2023-11-10T11:55:34.750Z,24.54
2023-11-10T11:56:35.649Z,23.48
2023-11-10T11:57:35.186Z,22.96
2023-11-10T11:58:34.767Z,22.87
2023-11-10T11:59:34.973Z,22.96
2023-11-10T12:00:35.000Z,23.40
2023-11-10T12:01:34.876Z,23.98
2023-11-10T12:02:37.802Z,24.31
2023-11-10T12:03:35.198Z,23.96
2023-11-10T12:04:36.053Z,23.48
2023-11-10T12:05:34.987Z,23.47
2023-11-10T12:06:35.032Z,24.09
2023-11-10T12:07:34.926Z,24.55
2023-11-10T12:08:35.657Z,25.22
2023-11-10T12:09:35.676Z,25.77
2023-11-10T12:10:35.576Z,26.20
2023-11-10T12:11:34.956Z,27.20
2023-11-10T12:12:35.082Z,28.34
2023-11-10T12:13:35.453Z,29.40
2023-11-10T12:14:34.880Z,30.70
2023-11-10T12:15:38.030Z,32.00
2023-11-10T12:16:39.166Z,32.48
2023-11-10T12:17:35.848Z,32.95
2023-11-10T12:18:35.630Z,33.51
2023-11-10T12:19:35.421Z,34.15
2023-11-10T12:20:34.919Z,34.37
2023-11-10T12:21:37.732Z,34.92
2023-11-10T12:22:34.829Z,34.74
2023-11-10T12:23:35.014Z,34.62
2023-11-10T12:24:34.932Z,34.51
2023-11-10T12:25:34.827Z,34.98
2023-11-10T12:26:35.977Z,35.31
2023-11-10T12:27:36.115Z,35.49
2023-11-10T12:28:34.840Z,35.84
2023-11-10T12:29:34.862Z,35.78
2023-11-10T12:30:35.700Z,36.20
2023-11-10T12:31:34.989Z,36.45
2023-11-10T12:32:35.709Z,36.76
2023-11-10T12:33:36.046Z,36.99
2023-11-10T12:34:34.934Z,36.79
2023-11-10T12:35:34.920Z,36.83
2023-11-10T12:36:35.755Z,36.88
2023-11-10T12:37:34.938Z,37.18
2023-11-10T12:38:34.804Z,37.40
2023-11-10T12:39:34.780Z,37.85
2023-11-10T12:40:35.561Z,38.67
2023-11-10T12:41:35.273Z,38.73
2023-11-10T12:42:34.757Z,38.61
2023-11-10T12:43:34.738Z,38.59
2023-11-10T12:44:34.820Z,38.69
2023-11-10T12:45:34.743Z,38.97
2023-11-10T12:46:34.772Z,39.12
2023-11-10T12:47:35.843Z,38.93
2023-11-10T12:48:34.809Z,38.86
2023-11-10T12:49:34.684Z,38.86
2023-11-10T12:50:34.717Z,38.72
2023-11-10T12:51:35.667Z,38.73
2023-11-10T12:52:34.812Z,38.75
2023-11-10T12:53:35.474Z,38.88
2023-11-10T12:54:34.718Z,39.24
2023-11-10T12:55:34.537Z,39.49
2023-11-10T12:56:34.658Z,39.77
2023-11-10T12:57:35.688Z,39.51
2023-11-10T12:58:34.744Z,39.75
2023-11-10T12:59:35.712Z,40.07
2023-11-10T13:00:34.776Z,40.40
2023-11-10T13:01:35.104Z,40.72
2023-11-10T13:02:34.979Z,40.77
2023-11-10T13:03:35.187Z,40.70
2023-11-10T13:04:34.952Z,40.67
2023-11-10T13:05:37.784Z,40.62
2023-11-10T13:06:35.894Z,40.46
2023-11-10T13:07:35.251Z,40.62
2023-11-10T13:08:35.144Z,40.81
2023-11-10T13:09:35.041Z,41.00
2023-11-10T13:10:35.063Z,41.10
2023-11-10T13:11:35.079Z,41.38
2023-11-10T13:12:34.980Z,41.98
2023-11-10T13:13:34.973Z,42.04
2023-11-10T13:14:34.902Z,42.27
2023-11-10T13:15:35.763Z,42.25
2023-11-10T13:16:35.022Z,42.21
2023-11-10T13:17:35.343Z,42.77
2023-11-10T13:18:35.240Z,43.28
2023-11-10T13:19:34.904Z,43.55
2023-11-10T13:20:36.411Z,43.61
2023-11-10T13:21:35.364Z,43.23
2023-11-10T13:22:36.476Z,43.18
2023-11-10T13:23:34.934Z,43.17
2023-11-10T13:24:34.958Z,43.08
2023-11-10T13:25:34.972Z,43.36
2023-11-10T13:26:35.169Z,43.11
2023-11-10T13:27:34.973Z,43.10
2023-11-10T13:28:41.753Z,43.38
2023-11-10T13:29:36.208Z,43.48
2023-11-10T13:30:36.563Z,43.37
2023-11-10T13:31:36.008Z,43.98
2023-11-10T13:32:35.168Z,43.31
2023-11-10T13:33:35.016Z,43.28
2023-11-10T13:34:35.220Z,43.38
2023-11-10T13:35:35.425Z,43.77
2023-11-10T13:36:34.940Z,43.91
2023-11-10T13:37:34.835Z,43.83
2023-11-10T13:38:34.720Z,43.69
2023-11-10T13:39:34.774Z,43.84
2023-11-10T13:40:34.769Z,44.03
2023-11-10T13:41:41.049Z,44.39
2023-11-10T13:42:35.720Z,44.72
2023-11-10T13:43:35.661Z,44.87
2023-11-10T13:44:34.856Z,45.00
2023-11-10T13:45:34.766Z,44.60
2023-11-10T13:46:34.785Z,44.75
2023-11-10T13:47:34.794Z,45.05
2023-11-10T13:48:34.685Z,45.25
2023-11-10T13:49:34.893Z,45.29
2023-11-10T13:50:35.489Z,45.68
2023-11-10T13:51:37.947Z,45.82
2023-11-10T13:52:35.618Z,47.41
2023-11-10T13:53:34.719Z,48.38
2023-11-10T13:54:34.827Z,48.81
2023-11-10T13:55:34.779Z,48.93
2023-11-10T13:56:35.726Z,49.97
2023-11-10T13:57:35.003Z,52.13
2023-11-10T13:58:34.757Z,53.09
2023-11-10T13:59:34.981Z,53.40